Time;durP1;ratioP1;P1;durP2;ratioP2;P2;SDS_P1;SDS_P2;PMS_P1;PMS_P2;Temp;Humidity;BMP_temperature;BMP_pressure;BME280_temperature;BME280_humidity;BME280_pressure;Samples;Min_cycle;Max_cycle;Signal;HPM_P1;HPM_P2
2023/04/13 00:01:10;;;;;;;22.50;9.43;;;8.20;83.90;;;;;;6224342;22;20020;-82
2023/04/13 00:03:39;;;;;;;22.77;9.50;;;8.20;84.10;;;;;;6224688;22;20026;-82
2023/04/13 00:06:09;;;;;;;22.92;9.20;;;8.30;84.20;;;;;;6223738;22;20022;-82
2023/04/13 00:08:37;;;;;;;23.95;9.35;;;8.30;83.90;;;;;;6223797;22;20531;-82
2023/04/13 00:11:06;;;;;;;22.77;9.95;;;8.30;84.10;;;;;;6223015;22;20025;-82
2023/04/13 00:13:39;;;;;;;28.73;11.27;;;8.30;84.60;;;;;;6224084;22;20024;-82
2023/04/13 00:16:12;;;;;;;24.45;11.85;;;8.30;85.00;;;;;;6249357;22;20066;-82
2023/04/13 00:18:39;;;;;;;25.27;11.90;;;8.30;83.80;;;;;;6248523;22;20860;-82
2023/04/13 00:21:07;;;;;;;27.45;12.32;;;8.30;83.80;;;;;;6248855;22;20102;-82
2023/04/13 00:23:35;;;;;;;28.50;11.70;;;8.30;83.60;;;;;;6223686;22;20031;-82
2023/04/13 00:26:02;;;;;;;25.08;12.05;;;8.30;83.60;;;;;;6223113;22;20026;-82
2023/04/13 00:28:29;;;;;;;29.70;11.63;;;8.30;82.60;;;;;;6223278;22;20745;-82
2023/04/13 00:30:58;;;;;;;27.15;11.50;;;8.30;82.60;;;;;;6224671;22;20443;-82
2023/04/13 00:33:25;;;;;;;19.88;9.55;;;8.30;82.70;;;;;;6248817;22;20043;-82
2023/04/13 00:35:52;;;;;;;20.13;9.00;;;8.30;82.20;;;;;;6223675;22;20024;-82
2023/04/13 00:38:19;;;;;;;17.92;9.20;;;8.40;82.80;;;;;;6223014;22;20027;-82
2023/04/13 00:40:47;;;;;;;23.67;9.82;;;8.40;82.50;;;;;;6223746;22;20062;-82
2023/04/13 00:43:15;;;;;;;21.77;9.55;;;8.40;82.30;;;;;;6227686;22;20027;-82
2023/04/13 00:45:42;;;;;;;20.90;11.13;;;8.30;83.30;;;;;;6223591;22;20012;-82
2023/04/13 00:48:10;;;;;;;20.55;10.43;;;8.40;82.70;;;;;;6249126;22;20042;-82
2023/04/13 00:50:38;;;;;;;21.67;9.88;;;8.40;82.80;;;;;;6223564;22;20050;-82
2023/04/13 00:53:06;;;;;;;19.30;10.05;;;8.40;83.40;;;;;;6249001;22;20019;-82
2023/04/13 00:55:39;;;;;;;20.50;9.70;;;8.40;82.60;;;;;;6224292;22;20020;-82
2023/04/13 00:58:06;;;;;;;19.38;9.95;;;8.40;83.00;;;;;;6223292;22;20065;-82
2023/04/13 01:00:37;;;;;;;23.40;10.43;;;8.40;83.20;;;;;;6223432;22;20016;-82
2023/04/13 01:03:05;;;;;;;22.58;10.13;;;8.40;83.20;;;;;;6223920;22;20030;-82
2023/04/13 01:05:40;;;;;;;26.83;10.60;;;8.40;82.90;;;;;;6248298;22;20015;-82
2023/04/13 01:08:28;;;;;;;21.83;9.68;;;8.40;82.00;;;;;;6222950;22;20102;-82
2023/04/13 01:10:57;;;;;;;15.88;8.10;;;8.30;82.20;;;;;;6223527;22;20077;-82
2023/04/13 01:13:42;;;;;;;16.85;8.52;;;8.30;82.10;;;;;;6223088;22;20012;-82
2023/04/13 01:16:15;;;;;;;17.88;8.00;;;8.40;82.20;;;;;;6222758;22;20019;-82
2023/04/13 01:18:47;;;;;;;19.70;7.93;;;8.40;82.80;;;;;;6223255;22;20032;-82
2023/04/13 01:21:20;;;;;;;15.32;7.72;;;8.40;82.90;;;;;;6222345;22;20455;-82
2023/04/13 01:23:59;;;;;;;13.27;6.82;;;8.40;82.30;;;;;;6222990;22;20131;-82
2023/04/13 01:26:49;;;;;;;13.15;7.18;;;8.40;82.20;;;;;;6247688;22;20436;-82
2023/04/13 01:29:17;;;;;;;16.05;7.32;;;8.40;83.50;;;;;;6223104;22;20016;-82
2023/04/13 01:31:47;;;;;;;16.55;7.63;;;8.40;82.60;;;;;;6225658;22;20012;-82
2023/04/13 01:34:15;;;;;;;19.27;7.60;;;8.50;82.70;;;;;;6223917;22;20027;-82
2023/04/13 01:36:44;;;;;;;18.75;9.18;;;8.50;82.80;;;;;;6225656;22;20024;-82
2023/04/13 01:39:21;;;;;;;14.00;7.18;;;8.50;82.90;;;;;;6223856;22;20043;-82
2023/04/13 01:41:59;;;;;;;16.52;7.35;;;8.50;82.80;;;;;;6225846;22;20028;-82
2023/04/13 01:44:30;;;;;;;16.67;7.28;;;8.50;85.20;;;;;;6223934;22;20027;-82
2023/04/13 01:47:14;;;;;;;12.25;6.72;;;8.50;85.40;;;;;;6223954;22;20030;-82
2023/04/13 01:50:07;;;;;;;15.00;7.00;;;8.50;85.80;;;;;;6224998;22;20020;-82
2023/04/13 01:52:49;;;;;;;14.68;7.75;;;8.50;85.00;;;;;;6226123;22;20022;-82
2023/04/13 01:55:17;;;;;;;17.77;7.32;;;8.50;84.80;;;;;;6250271;22;20019;-82
2023/04/13 01:57:55;;;;;;;13.45;6.25;;;8.50;85.60;;;;;;6225011;22;20031;-82
2023/04/13 02:00:32;;;;;;;13.15;6.65;;;8.50;86.60;;;;;;6224394;22;20022;-82
2023/04/13 02:03:04;;;;;;;13.85;6.88;;;8.50;85.70;;;;;;6224860;22;20026;-82
2023/04/13 02:05:39;;;;;;;14.10;6.28;;;8.50;85.40;;;;;;6224595;22;20051;-82
2023/04/13 02:08:07;;;;;;;11.65;5.40;;;8.40;84.80;;;;;;6224678;22;20019;-83
2023/04/13 02:10:41;;;;;;;11.20;5.38;;;8.50;83.80;;;;;;6225833;22;20019;-82
2023/04/13 02:13:08;;;;;;;14.48;6.13;;;8.50;83.90;;;;;;6224909;22;20020;-82
2023/04/13 02:15:37;;;;;;;13.70;6.30;;;8.50;83.20;;;;;;6224205;22;20768;-82
2023/04/13 02:18:04;;;;;;;11.25;5.47;;;8.50;84.30;;;;;;6223910;22;20102;-82
2023/04/13 02:20:44;;;;;;;12.18;5.97;;;8.40;82.80;;;;;;6225079;22;20748;-81
2023/04/13 02:23:15;;;;;;;12.02;6.03;;;8.50;83.00;;;;;;6224097;22;20034;-82
2023/04/13 02:25:43;;;;;;;10.20;4.97;;;8.50;83.80;;;;;;6225009;22;20024;-82
2023/04/13 02:28:16;;;;;;;11.50;5.28;;;8.50;82.20;;;;;;6249657;22;20026;-82
2023/04/13 02:30:45;;;;;;;8.82;5.20;;;8.50;82.60;;;;;;6225459;22;20058;-82
2023/04/13 02:33:13;;;;;;;11.20;4.90;;;8.40;82.70;;;;;;6224654;22;20018;-82
2023/04/13 02:35:40;;;;;;;13.85;5.75;;;8.40;83.60;;;;;;6225025;22;20447;-82
2023/04/13 02:38:09;;;;;;;12.45;5.45;;;8.50;83.00;;;;;;6224740;22;20459;-82
2023/04/13 02:40:37;;;;;;;13.75;6.80;;;8.50;82.80;;;;;;6249436;22;20019;-82
2023/04/13 02:43:06;;;;;;;14.30;6.47;;;8.50;82.10;;;;;;6224041;22;20028;-82
2023/04/13 02:45:37;;;;;;;18.70;8.07;;;8.50;82.30;;;;;;6225401;22;20020;-82
2023/04/13 02:48:09;;;;;;;14.85;7.13;;;8.50;81.60;;;;;;6224898;22;20015;-82
2023/04/13 02:50:37;;;;;;;17.08;7.78;;;8.40;81.80;;;;;;6224500;22;20019;-82
2023/04/13 02:53:07;;;;;;;18.83;8.90;;;8.40;82.00;;;;;;6225241;22;20082;-82
2023/04/13 02:55:37;;;;;;;20.00;8.73;;;8.40;82.10;;;;;;6224527;22;20054;-82
2023/04/13 02:58:10;;;;;;;14.88;8.52;;;8.50;82.60;;;;;;6249268;22;20051;-82
2023/04/13 03:00:40;;;;;;;13.50;6.45;;;8.50;83.00;;;;;;6225228;22;20034;-82
2023/04/13 03:03:10;;;;;;;14.07;5.57;;;8.50;82.70;;;;;;6250228;22;20023;-82
2023/04/13 03:05:43;;;;;;;;;;;8.50;83.20;;;;;;6248874;22;20455;-82
2023/04/13 03:08:14;;;;;;;11.93;4.85;;;8.50;82.60;;;;;;6226520;22;19941;-82
2023/04/13 03:10:53;;;;;;;9.73;4.57;;;8.50;82.40;;;;;;6226748;22;20351;-83
2023/04/13 03:13:21;;;;;;;12.25;5.28;;;8.40;81.80;;;;;;6249106;22;20431;-83
2023/04/13 03:15:54;;;;;;;;;;;8.40;81.40;;;;;;6225927;22;20103;-82
2023/04/13 03:18:24;;;;;;;10.50;5.13;;;8.40;81.60;;;;;;6224682;22;19915;-82
2023/04/13 03:20:51;;;;;;;12.40;4.90;;;8.40;81.80;;;;;;6224280;22;20024;-82
2023/04/13 03:23:20;;;;;;;9.63;5.03;;;8.50;82.60;;;;;;6224875;22;20027;-82
2023/04/13 03:25:47;;;;;;;9.65;4.10;;;8.40;82.90;;;;;;6224425;22;20095;-82
2023/04/13 03:28:18;;;;;;;8.68;4.22;;;8.50;83.30;;;;;;6224638;22;20102;-82
2023/04/13 03:30:45;;;;;;;10.93;4.18;;;8.50;82.70;;;;;;6224301;22;20459;-82
2023/04/13 03:33:13;;;;;;;8.07;4.40;;;8.50;82.40;;;;;;6224903;22;20761;-82
2023/04/13 03:35:41;;;;;;;10.57;4.13;;;8.70;82.20;;;;;;6224440;22;20352;-82
2023/04/13 03:38:17;;;;;;;11.80;4.72;;;8.40;82.20;;;;;;6227550;22;20015;-82
2023/04/13 03:40:46;;;;;;;10.25;3.80;;;8.50;83.20;;;;;;6224982;22;20048;-82
2023/04/13 03:43:14;;;;;;;9.93;4.88;;;8.50;82.30;;;;;;6224004;22;20015;-82
2023/04/13 03:45:47;;;;;;;8.80;4.47;;;8.40;82.40;;;;;;6226012;22;20019;-82
2023/04/13 03:48:15;;;;;;;8.75;4.85;;;8.30;82.20;;;;;;6225548;22;20015;-82
2023/04/13 03:50:42;;;;;;;12.30;4.47;;;8.40;82.40;;;;;;6225226;22;20019;-82
2023/04/13 03:53:12;;;;;;;7.90;3.90;;;8.40;83.60;;;;;;6224466;22;20015;-82
2023/04/13 03:55:43;;;;;;;8.73;4.30;;;8.50;83.40;;;;;;6225247;22;20022;-82
2023/04/13 03:58:10;;;;;;;8.40;4.32;;;8.50;83.40;;;;;;6224364;22;20019;-82
2023/04/13 04:00:38;;;;;;;8.15;3.97;;;8.40;83.20;;;;;;6224979;22;20044;-82
2023/04/13 04:03:24;;;;;;;10.60;4.03;;;8.50;83.70;;;;;;6227002;22;20045;-82
2023/04/13 04:05:57;;;;;;;8.60;4.22;;;8.40;83.90;;;;;;6224526;22;20077;-82
2023/04/13 04:08:27;;;;;;;7.20;3.83;;;8.40;83.10;;;;;;6224036;22;20051;-82
2023/04/13 04:10:58;;;;;;;10.73;4.78;;;8.40;83.40;;;;;;6224695;22;20069;-82
2023/04/13 04:13:27;;;;;;;9.15;4.25;;;8.40;82.90;;;;;;6226719;22;20020;-82
2023/04/13 04:15:57;;;;;;;7.10;3.90;;;8.40;82.90;;;;;;6224156;22;20054;-82
2023/04/13 04:18:29;;;;;;;10.50;4.20;;;8.40;83.40;;;;;;6224123;22;20016;-82
2023/04/13 04:20:57;;;;;;;8.52;4.40;;;8.40;83.60;;;;;;6223467;22;20050;-82
2023/04/13 04:23:27;;;;;;;10.95;4.80;;;8.50;83.80;;;;;;6222918;22;20023;-82
2023/04/13 04:26:02;;;;;;;9.75;4.57;;;8.40;83.80;;;;;;6225135;22;20046;-82
2023/04/13 04:28:39;;;;;;;11.32;4.78;;;8.40;83.40;;;;;;6225053;22;20020;-82
2023/04/13 04:31:11;;;;;;;9.35;4.63;;;8.40;83.40;;;;;;6224815;22;20015;-82
2023/04/13 04:33:43;;;;;;;8.65;4.75;;;8.50;83.90;;;;;;6224667;22;20019;-82
2023/04/13 04:36:12;;;;;;;8.40;3.88;;;8.50;83.60;;;;;;6224050;22;20066;-82
2023/04/13 04:38:50;;;;;;;7.03;3.45;;;8.50;83.40;;;;;;6225076;22;20023;-82
2023/04/13 04:41:21;;;;;;;9.38;3.40;;;8.50;82.80;;;;;;6223216;22;20050;-82
2023/04/13 04:43:55;;;;;;;7.50;3.80;;;8.50;83.20;;;;;;6224096;22;20505;-82
2023/04/13 04:46:28;;;;;;;24.75;4.93;;;8.50;83.60;;;;;;6223421;22;20634;-82
2023/04/13 04:49:15;;;;;;;9.23;3.58;;;8.60;83.30;;;;;;6184257;23;20021;-82
2023/04/13 04:51:43;;;;;;;7.35;3.83;;;8.60;83.30;;;;;;6157744;23;20369;-82
2023/04/13 04:54:15;;;;;;;6.65;3.72;;;8.60;83.70;;;;;;6158850;23;20052;-82
2023/04/13 04:56:47;;;;;;;8.40;3.63;;;8.70;84.30;;;;;;6160196;23;20071;-82
2023/04/13 04:59:19;;;;;;;12.32;4.13;;;8.70;84.00;;;;;;6157949;23;20025;-82
2023/04/13 05:02:06;;;;;;;8.73;3.65;;;8.70;83.50;;;;;;6159201;23;20085;-83
2023/04/13 05:04:35;;;;;;;8.93;4.03;;;8.70;83.30;;;;;;6156300;23;20028;-83
2023/04/13 05:07:02;;;;;;;9.30;3.92;;;8.80;83.70;;;;;;6155754;23;20080;-83
2023/04/13 05:09:36;;;;;;;8.18;3.85;;;8.80;83.30;;;;;;6156644;23;20021;-82
2023/04/13 05:12:04;;;;;;;7.75;3.08;;;8.80;83.60;;;;;;6153787;23;20025;-81
2023/04/13 05:14:31;;;;;;;7.28;3.65;;;8.80;83.40;;;;;;6155466;23;20029;-81
2023/04/13 05:16:59;;;;;;;7.57;3.25;;;8.80;83.50;;;;;;6154910;23;20445;-81
2023/04/13 05:19:33;;;;;;;5.80;2.55;;;8.80;83.30;;;;;;6156075;23;20044;-81
2023/04/13 05:22:22;;;;;;;9.05;3.40;;;8.80;83.50;;;;;;6160169;23;20029;-81
2023/04/13 05:24:56;;;;;;;9.35;3.30;;;8.80;83.00;;;;;;6156858;23;20137;-81
2023/04/13 05:27:23;;;;;;;10.02;4.13;;;8.80;83.40;;;;;;6224122;22;20030;-81
2023/04/13 05:29:53;;;;;;;12.20;4.70;;;8.90;84.00;;;;;;6222988;22;20015;-81
2023/04/13 05:32:23;;;;;;;9.23;4.60;;;8.80;84.30;;;;;;6222392;22;20051;-81
2023/04/13 05:34:52;;;;;;;12.35;4.07;;;8.90;84.30;;;;;;6223492;22;20658;-81
2023/04/13 05:37:23;;;;;;;8.48;4.03;;;8.90;85.20;;;;;;6223425;22;20026;-82
2023/04/13 05:39:50;;;;;;;7.13;3.38;;;9.00;85.40;;;;;;6222152;22;20031;-82
2023/04/13 05:42:23;;;;;;;8.52;3.63;;;9.00;85.40;;;;;;6222601;22;20352;-82
2023/04/13 05:44:51;;;;;;;8.57;3.70;;;9.10;85.70;;;;;;6222412;22;20078;-81
2023/04/13 05:47:21;;;;;;;7.75;3.53;;;9.20;85.50;;;;;;6220366;22;20027;-81
2023/04/13 05:49:53;;;;;;;8.55;3.90;;;9.30;84.90;;;;;;6220298;22;20019;-81
2023/04/13 05:52:21;;;;;;;7.90;3.33;;;9.50;84.90;;;;;;6221637;22;20020;-81
2023/04/13 05:54:49;;;;;;;8.63;3.13;;;9.60;84.00;;;;;;6223433;22;20022;-81
2023/04/13 05:57:20;;;;;;;8.40;3.63;;;9.70;83.30;;;;;;6210113;22;20054;-81
2023/04/13 05:59:50;;;;;;;6.60;2.85;;;9.80;82.50;;;;;;6208944;22;20026;-81
2023/04/13 06:02:38;;;;;;;9.23;2.65;;;9.90;81.70;;;;;;6202272;23;20114;-81
2023/04/13 06:05:13;;;;;;;6.88;3.03;;;10.00;81.70;;;;;;6223823;23;20471;-81
2023/04/13 06:07:43;;;;;;;7.43;3.40;;;10.00;81.20;;;;;;6226243;23;20066;-81
2023/04/13 06:10:15;;;;;;;6.78;3.28;;;10.10;80.80;;;;;;6224924;23;20078;-81
2023/04/13 06:12:43;;;;;;;9.07;4.17;;;10.10;80.80;;;;;;6226553;23;20451;-81
2023/04/13 06:15:11;;;;;;;8.45;3.17;;;10.20;81.30;;;;;;6225244;23;20284;-81
2023/04/13 06:17:38;;;;;;;7.00;3.55;;;10.20;81.10;;;;;;6228395;23;20031;-81
2023/04/13 06:20:07;;;;;;;8.05;3.25;;;10.20;81.70;;;;;;6227602;23;20024;-81
2023/04/13 06:22:34;;;;;;;7.63;3.78;;;10.30;81.10;;;;;;6228072;23;20434;-81
2023/04/13 06:25:01;;;;;;;8.23;3.30;;;10.40;80.60;;;;;;6225477;23;20024;-81
2023/04/13 06:27:33;;;;;;;9.85;3.08;;;10.50;79.30;;;;;;6223993;23;20066;-81
2023/04/13 06:30:01;;;;;;;7.28;2.95;;;10.50;79.60;;;;;;6224775;23;20028;-81
2023/04/13 06:32:31;;;;;;;7.20;3.00;;;10.50;80.20;;;;;;6201610;23;20028;-81
2023/04/13 06:34:58;;;;;;;8.65;4.05;;;10.60;79.80;;;;;;6233387;22;20392;-81
2023/04/13 06:37:29;;;;;;;6.85;2.92;;;10.60;78.80;;;;;;6207468;22;20442;-81
2023/04/13 06:39:56;;;;;;;6.75;2.95;;;10.80;78.50;;;;;;6203057;22;20020;-81
2023/04/13 06:42:24;;;;;;;6.43;2.67;;;11.00;79.30;;;;;;6209435;22;20015;-81
2023/04/13 06:45:01;;;;;;;7.40;2.95;;;11.20;77.70;;;;;;6209255;22;20102;-81
2023/04/13 06:47:36;;;;;;;8.88;3.47;;;11.40;78.00;;;;;;6208943;22;20020;-81
2023/04/13 06:50:05;;;;;;;8.18;3.85;;;11.50;77.40;;;;;;6207571;22;20020;-81
2023/04/13 06:52:36;;;;;;;6.60;2.85;;;11.50;76.70;;;;;;6206606;22;20020;-82
2023/04/13 06:55:04;;;;;;;7.55;3.20;;;11.50;78.20;;;;;;6207474;22;20434;-80
2023/04/13 06:57:35;;;;;;;5.50;3.05;;;11.50;77.80;;;;;;6231398;22;20051;-80
2023/04/13 07:00:09;;;;;;;8.38;3.20;;;11.60;76.40;;;;;;6205449;22;20034;-81
2023/04/13 07:02:57;;;;;;;9.77;3.50;;;11.70;76.10;;;;;;6210789;22;20522;-81
2023/04/13 07:05:25;;;;;;;6.70;2.95;;;12.00;76.50;;;;;;6209086;22;20510;-81
2023/04/13 07:07:55;;;;;;;7.68;3.13;;;12.30;75.30;;;;;;6207377;22;20020;-80
2023/04/13 07:10:23;;;;;;;8.30;2.97;;;12.60;74.80;;;;;;6209343;22;20020;-81
2023/04/13 07:12:52;;;;;;;6.85;3.03;;;13.10;74.10;;;;;;6209105;22;20023;-80
2023/04/13 07:15:23;;;;;;;5.05;2.58;;;13.20;73.10;;;;;;6235611;22;20024;-80
2023/04/13 07:17:51;;;;;;;8.90;2.58;;;13.30;72.30;;;;;;6207834;22;20347;-81
2023/04/13 07:20:18;;;;;;;9.25;3.25;;;13.30;70.40;;;;;;6209279;22;20015;-80
2023/04/13 07:22:46;;;;;;;11.35;6.03;;;13.20;69.50;;;;;;6206461;22;20384;-80
2023/04/13 07:25:13;;;;;;;10.80;3.55;;;13.20;70.10;;;;;;6206000;22;20028;-81
2023/04/13 07:27:40;;;;;;;6.07;2.95;;;13.50;70.90;;;;;;6206865;22;20034;-80
2023/04/13 07:30:08;;;;;;;4.93;2.63;;;13.40;69.10;;;;;;6232605;22;20130;-81
2023/04/13 07:32:40;;;;;;;5.55;2.60;;;13.30;69.70;;;;;;6206951;22;20043;-77
2023/04/13 07:35:08;;;;;;;6.10;2.53;;;13.30;70.80;;;;;;6206962;22;20438;-81
2023/04/13 07:37:37;;;;;;;6.43;2.70;;;13.20;70.10;;;;;;6206339;22;20030;-80
2023/04/13 07:40:08;;;;;;;8.02;2.75;;;13.10;69.70;;;;;;6210122;22;20056;-81
2023/04/13 07:42:35;;;;;;;5.63;2.45;;;13.10;70.10;;;;;;6207227;22;20428;-80
2023/04/13 07:45:03;;;;;;;6.93;3.20;;;13.00;70.20;;;;;;6205628;22;20023;-81
2023/04/13 07:47:31;;;;;;;8.35;2.92;;;12.90;69.30;;;;;;6232470;22;20020;-79
2023/04/13 07:50:05;;;;;;;5.75;2.42;;;13.00;68.80;;;;;;6207920;22;20019;-81
2023/04/13 07:52:32;;;;;;;7.47;2.28;;;13.00;69.10;;;;;;6207683;22;20074;-77
2023/04/13 07:55:02;;;;;;;7.63;2.25;;;13.00;68.10;;;;;;6207572;22;20039;-79
2023/04/13 07:57:32;;;;;;;5.88;2.00;;;13.10;68.10;;;;;;6207292;22;20020;-78
2023/04/13 08:00:04;;;;;;;5.30;1.73;;;13.30;67.30;;;;;;6230550;22;20113;-79
2023/04/13 08:02:40;;;;;;;4.32;1.90;;;13.50;68.00;;;;;;6236061;22;20032;-80
2023/04/13 08:05:11;;;;;;;5.65;1.90;;;13.90;67.10;;;;;;6206914;22;20132;-81
2023/04/13 08:07:39;;;;;;;4.32;1.70;;;14.00;66.80;;;;;;6205966;22;20438;-77
2023/04/13 08:10:07;;;;;;;7.97;1.92;;;14.20;66.30;;;;;;6230466;22;20023;-78
2023/04/13 08:12:34;;;;;;;6.93;2.40;;;14.30;65.50;;;;;;6204615;22;20023;-78
2023/04/13 08:15:01;;;;;;;2.67;1.30;;;14.30;64.70;;;;;;6231053;22;20034;-77
2023/04/13 08:17:29;;;;;;;3.92;1.55;;;14.20;64.30;;;;;;6231571;22;20023;-78
2023/04/13 08:19:56;;;;;;;3.78;1.42;;;14.40;64.70;;;;;;6203749;22;20028;-80
2023/04/13 08:22:23;;;;;;;4.75;1.30;;;14.40;63.80;;;;;;6204549;22;20034;-77
2023/04/13 08:24:51;;;;;;;5.13;2.05;;;14.40;63.40;;;;;;6228754;22;20894;-80
2023/04/13 08:27:18;;;;;;;4.43;1.23;;;14.20;63.60;;;;;;6207766;22;20027;-80
2023/04/13 08:29:45;;;;;;;5.35;1.70;;;14.30;65.20;;;;;;6206091;22;20550;-78
2023/04/13 08:32:13;;;;;;;5.20;1.90;;;14.40;63.40;;;;;;6206208;22;20020;-77
2023/04/13 08:34:41;;;;;;;5.60;1.58;;;14.90;63.30;;;;;;6230894;22;20038;-78
2023/04/13 08:37:10;;;;;;;2.80;1.10;;;15.20;63.70;;;;;;6231449;22;20030;-79
2023/04/13 08:39:38;;;;;;;4.90;1.30;;;15.00;63.70;;;;;;6204869;22;20732;-80
2023/04/13 08:42:06;;;;;;;2.35;1.15;;;14.50;62.90;;;;;;6205460;22;20072;-81
2023/04/13 08:44:41;;;;;;;3.72;1.70;;;14.40;64.80;;;;;;6201354;22;20041;-81
2023/04/13 08:47:10;;;;;;;3.17;1.10;;;14.30;64.10;;;;;;6209598;22;20474;-77
2023/04/13 08:49:39;;;;;;;3.63;1.23;;;14.40;63.80;;;;;;6216460;22;20020;-81
2023/04/13 08:52:09;;;;;;;4.85;2.13;;;14.40;64.00;;;;;;6238496;22;20028;-78
2023/04/13 08:54:39;;;;;;;;;;;14.30;64.20;;;;;;6205037;22;20023;-77
2023/04/13 08:57:15;;;;;;;3.90;1.35;;;14.40;63.90;;;;;;6203172;22;19919;-80
2023/04/13 08:59:44;;;;;;;2.88;1.30;;;14.30;64.10;;;;;;6206449;22;20027;-79
2023/04/13 09:02:11;;;;;;;5.50;1.98;;;14.40;65.00;;;;;;6229544;22;20098;-80
2023/04/13 09:04:53;;;;;;;4.38;1.20;;;14.40;66.20;;;;;;6205608;22;20307;-80
2023/04/13 09:07:27;;;;;;;2.63;1.58;;;14.50;66.00;;;;;;6206568;22;20046;-78
2023/04/13 09:10:00;;;;;;;3.08;1.33;;;14.60;66.70;;;;;;6203963;22;20508;-79
2023/04/13 09:12:29;;;;;;;2.80;0.90;;;14.70;64.50;;;;;;6228635;22;20078;-79
2023/04/13 09:14:57;;;;;;;4.72;1.00;;;14.70;63.00;;;;;;6205801;22;20089;-77
2023/04/13 09:17:33;;;;;;;3.50;1.00;;;14.90;62.80;;;;;;6229733;22;20027;-78
2023/04/13 09:20:20;;;;;;;6.72;1.00;;;14.90;61.60;;;;;;6230091;22;20478;-80
2023/04/13 09:22:48;;;;;;;4.20;1.13;;;15.20;62.10;;;;;;6204314;22;20031;-79
2023/04/13 09:25:23;;;;;;;6.97;1.05;;;15.80;61.10;;;;;;6256758;22;20409;-78
2023/04/13 09:27:53;;;;;;;2.78;0.90;;;16.10;59.70;;;;;;6203624;22;20019;-77
2023/04/13 09:30:28;;;;;;;3.05;1.13;;;16.40;59.00;;;;;;6229051;22;20026;-79
2023/04/13 09:33:06;;;;;;;13.52;2.00;;;16.50;58.40;;;;;;6205471;22;20020;-81
2023/04/13 09:35:34;;;;;;;3.15;1.27;;;16.50;58.80;;;;;;6205381;22;20026;-79
2023/04/13 09:38:06;;;;;;;4.72;1.02;;;16.60;58.60;;;;;;6204809;22;20504;-79
2023/04/13 09:40:37;;;;;;;2.83;0.77;;;16.60;58.20;;;;;;6206712;22;20027;-75
2023/04/13 09:43:09;;;;;;;3.33;1.00;;;17.00;60.10;;;;;;6207087;22;20055;-80
2023/04/13 09:45:38;;;;;;;7.60;1.42;;;17.10;58.60;;;;;;6233401;22;20027;-77
2023/04/13 09:48:17;;;;;;;1.60;0.55;;;17.10;56.90;;;;;;6208332;22;20485;-77
2023/04/13 09:50:44;;;;;;;3.25;0.60;;;17.30;57.70;;;;;;6233100;22;20022;-81
2023/04/13 09:53:11;;;;;;;3.80;0.70;;;17.40;57.30;;;;;;6207868;22;20020;-79
2023/04/13 09:55:39;;;;;;;2.38;0.47;;;17.40;57.20;;;;;;6233232;22;20023;-78
2023/04/13 09:58:15;;;;;;;4.00;0.82;;;17.60;56.60;;;;;;6209997;22;20525;-80
2023/04/13 10:00:45;;;;;;;3.47;0.70;;;17.80;57.20;;;;;;6233898;22;20486;-77
2023/04/13 10:03:14;;;;;;;1.90;0.60;;;17.70;55.00;;;;;;6206727;22;20112;-80
2023/04/13 10:05:42;;;;;;;3.22;0.45;;;17.80;56.90;;;;;;6231822;22;20418;-78
2023/04/13 10:08:25;;;;;;;1.58;0.68;;;18.10;56.80;;;;;;6210624;22;20476;-79
2023/04/13 10:11:10;;;;;;;1.63;0.70;;;18.10;56.60;;;;;;6235970;22;20430;-80
2023/04/13 10:13:52;;;;;;;2.42;0.52;;;17.70;55.10;;;;;;6207335;22;20349;-80
2023/04/13 10:16:35;;;;;;;1.38;0.60;;;17.50;55.30;;;;;;6211206;22;20034;-79
2023/04/13 10:19:21;;;;;;;1.10;0.45;;;17.30;56.40;;;;;;6230727;22;20050;-79
2023/04/13 10:21:51;;;;;;;2.15;0.60;;;17.20;57.40;;;;;;6206780;22;20473;-79
2023/04/13 10:24:18;;;;;;;1.95;0.52;;;17.10;56.90;;;;;;6228353;23;20024;-78
2023/04/13 10:26:46;;;;;;;2.05;0.90;;;16.90;57.80;;;;;;6177590;23;20102;-80
2023/04/13 10:29:15;;;;;;;3.17;0.40;;;16.80;58.80;;;;;;6202713;23;20024;-79
2023/04/13 10:31:47;;;;;;;4.97;0.75;;;16.50;57.70;;;;;;6227929;23;20466;-81
2023/04/13 10:34:26;;;;;;;2.63;0.73;;;16.40;59.30;;;;;;6177795;23;20455;-80
2023/04/13 10:36:56;;;;;;;3.28;0.70;;;16.40;59.00;;;;;;6228326;23;20019;-80
2023/04/13 10:39:24;;;;;;;2.22;0.75;;;16.40;58.90;;;;;;6177800;23;20107;-77
2023/04/13 10:41:59;;;;;;;2.15;0.43;;;16.40;58.60;;;;;;6174129;23;20704;-81
2023/04/13 10:44:27;;;;;;;1.83;0.50;;;16.40;58.60;;;;;;6230782;23;20035;-81
2023/04/13 10:46:54;;;;;;;5.10;0.50;;;16.40;58.70;;;;;;6177606;23;20033;-79
2023/04/13 10:49:31;;;;;;;2.58;0.50;;;16.50;56.90;;;;;;6176573;23;20427;-79
2023/04/13 10:51:59;;;;;;;3.40;1.00;;;16.50;57.00;;;;;;6178677;23;20024;-78
2023/04/13 10:54:27;;;;;;;2.33;0.30;;;16.60;56.60;;;;;;6226572;23;20016;-81
2023/04/13 10:56:56;;;;;;;2.10;0.30;;;16.60;55.70;;;;;;6176227;23;20454;-80
2023/04/13 10:59:43;;;;;;;2.53;0.30;;;16.70;55.70;;;;;;6176339;23;20349;-80
2023/04/13 11:02:33;;;;;;;0.70;0.20;;;16.70;54.90;;;;;;6225291;23;20098;-79
2023/04/13 11:05:01;;;;;;;1.10;0.40;;;16.70;55.50;;;;;;6200471;23;20077;-77
2023/04/13 11:07:29;;;;;;;1.33;0.30;;;16.70;54.60;;;;;;6201158;23;20024;-77
2023/04/13 11:09:57;;;;;;;2.20;0.30;;;16.70;55.60;;;;;;6203391;23;20369;-80
2023/04/13 11:12:27;;;;;;;1.45;0.30;;;16.70;56.00;;;;;;6175733;23;20356;-80
2023/04/13 11:14:54;;;;;;;1.17;0.30;;;16.70;55.00;;;;;;6179770;23;20094;-77
2023/04/13 11:17:21;;;;;;;2.38;0.30;;;16.70;54.50;;;;;;6177117;23;20354;-78
2023/04/13 11:19:53;;;;;;;2.15;0.55;;;16.70;54.80;;;;;;6205411;23;20763;-79
2023/04/13 11:22:22;;;;;;;1.23;0.45;;;16.70;56.50;;;;;;6207474;22;20031;-80
2023/04/13 11:24:50;;;;;;;3.63;0.98;;;16.80;56.90;;;;;;6206019;22;20027;-78
2023/04/13 11:27:22;;;;;;;1.90;0.32;;;16.80;57.90;;;;;;6229319;22;20027;-76
2023/04/13 11:29:59;;;;;;;2.10;0.40;;;16.90;57.50;;;;;;6206710;22;20020;-80
2023/04/13 11:32:26;;;;;;;2.15;0.40;;;17.00;57.10;;;;;;6228902;22;20026;-79
2023/04/13 11:35:11;;;;;;;1.98;0.35;;;17.10;56.60;;;;;;6205495;22;20485;-80
2023/04/13 11:37:44;;;;;;;3.72;0.90;;;17.20;56.60;;;;;;6231422;22;20840;-78
2023/04/13 11:40:16;;;;;;;2.03;0.55;;;17.20;55.40;;;;;;6229910;22;20027;-80
2023/04/13 11:42:45;;;;;;;3.17;0.82;;;17.10;55.60;;;;;;6204618;22;20099;-76
2023/04/13 11:45:15;;;;;;;1.60;0.43;;;17.10;55.50;;;;;;6205946;22;20024;-77
2023/04/13 11:47:43;;;;;;;2.92;0.60;;;17.00;55.30;;;;;;6230569;22;20047;-80
2023/04/13 11:50:11;;;;;;;2.92;0.30;;;16.80;56.20;;;;;;6231410;22;20024;-80
2023/04/13 11:52:42;;;;;;;3.42;0.60;;;16.80;57.30;;;;;;6207359;22;20130;-80
2023/04/13 11:55:10;;;;;;;0.82;0.40;;;16.80;57.70;;;;;;6229743;22;20078;-81
2023/04/13 11:57:50;;;;;;;1.73;0.52;;;16.70;58.40;;;;;;6234820;22;20012;-80
2023/04/13 12:00:23;;;;;;;1.38;0.32;;;16.80;57.50;;;;;;6206723;22;20019;-80
2023/04/13 12:02:52;;;;;;;1.67;0.35;;;16.80;57.90;;;;;;6230680;22;20405;-81
2023/04/13 12:05:30;;;;;;;0.95;0.22;;;16.80;57.10;;;;;;6205079;22;20475;-81
2023/04/13 12:08:01;;;;;;;1.80;0.43;;;16.80;57.60;;;;;;6237808;22;20039;-81
2023/04/13 12:10:33;;;;;;;2.15;0.90;;;16.90;58.20;;;;;;6213759;22;20020;-80
2023/04/13 12:13:08;;;;;;;3.45;0.60;;;16.90;58.40;;;;;;6207191;22;20414;-79
2023/04/13 12:15:54;;;;;;;2.38;0.38;;;17.10;58.10;;;;;;6209398;22;20101;-78
2023/04/13 12:18:45;;;;;;;5.85;0.45;;;17.10;57.10;;;;;;6209824;22;20116;-79
2023/04/13 12:21:16;;;;;;;1.95;0.60;;;17.20;57.70;;;;;;6230779;22;20055;-79
2023/04/13 12:23:52;;;;;;;1.98;0.75;;;17.20;57.40;;;;;;6230687;22;20481;-77
2023/04/13 12:26:19;;;;;;;2.70;0.60;;;17.30;56.80;;;;;;6231499;22;20100;-76
2023/04/13 12:29:07;;;;;;;1.65;0.40;;;17.20;55.40;;;;;;6235391;22;20065;-79
2023/04/13 12:31:39;;;;;;;2.70;0.70;;;17.30;56.70;;;;;;6206141;22;20473;-79
2023/04/13 12:34:06;;;;;;;5.13;0.95;;;17.40;58.20;;;;;;6202190;22;20507;-80
2023/04/13 12:36:35;;;;;;;2.25;0.35;;;17.50;58.40;;;;;;6230628;22;20024;-80
2023/04/13 12:39:03;;;;;;;2.42;0.38;;;17.50;57.90;;;;;;6229059;22;20032;-80
2023/04/13 12:41:31;;;;;;;1.30;0.73;;;17.60;57.80;;;;;;6238771;22;20043;-80
2023/04/13 12:43:58;;;;;;;2.05;0.50;;;17.60;57.00;;;;;;6208742;22;20024;-78
2023/04/13 12:46:25;;;;;;;2.63;0.50;;;17.70;56.90;;;;;;6257182;22;20019;-80
2023/04/13 12:48:52;;;;;;;2.53;0.70;;;17.70;57.10;;;;;;6230050;22;20436;-79
2023/04/13 12:51:20;;;;;;;3.47;1.30;;;17.80;57.10;;;;;;6200229;22;20462;-80
2023/04/13 12:53:47;;;;;;;2.30;0.60;;;17.80;57.40;;;;;;6237408;22;20023;-80
2023/04/13 12:56:14;;;;;;;1.95;0.73;;;17.90;58.20;;;;;;6205882;22;20085;-80
2023/04/13 12:58:41;;;;;;;3.78;2.17;;;18.00;58.00;;;;;;6204648;22;20034;-79
2023/04/13 13:01:09;;;;;;;3.08;0.40;;;18.00;56.60;;;;;;6206554;22;20024;-80
2023/04/13 13:03:36;;;;;;;1.63;0.40;;;18.10;57.30;;;;;;6207324;22;20030;-79
2023/04/13 13:06:04;;;;;;;1.50;0.50;;;18.20;57.10;;;;;;6231881;22;20123;-77
2023/04/13 13:08:31;;;;;;;3.05;0.88;;;18.30;56.80;;;;;;6228153;22;20019;-80